Terminal Aerodrome Forecast
Issued by NWS

Current Version | Previous Version | Graphics & Text | Print | Product List | Glossary On
Versions: 1 2 3 4 5 6 7 8 9 10 11 12 13 14 15 16
000
FTUS41 KRNK 211730
TAFLWB
TAF
KLWB 211730Z 2118/2218 22003KT P6SM FEW250
     FM212300 20006KT P6SM BKN070
     FM220400 22004KT P6SM BKN025
     FM220800 27005KT P6SM BKN045
     FM221300 30010KT P6SM SCT035=

USA.gov is the U.S. government's official web portal to all federal, state and local government web resources and services.